Time;durP1;ratioP1;P1;durP2;ratioP2;P2;SDS_P1;SDS_P2;PMS_P1;PMS_P2;Temp;Humidity;BMP_temperature;BMP_pressure;BME280_temperature;BME280_humidity;BME280_pressure;Samples;Min_cycle;Max_cycle;Signal;HPM_P1;HPM_P2
2022/04/08 00:01:19;;;;;;;5.18;1.27;;;;;;;7.35;72.07;98309.97;5069105;28;20106;-71
2022/04/08 00:03:46;;;;;;;5.32;1.30;;;;;;;7.48;72.42;98331.53;5068451;28;20412;-71
2022/04/08 00:06:13;;;;;;;6.03;2.47;;;;;;;7.74;72.15;98343.38;5068122;28;20041;-71
2022/04/08 00:08:39;;;;;;;3.80;1.50;;;;;;;7.89;72.20;98343.13;5067064;28;20102;-71
2022/04/08 00:11:07;;;;;;;4.30;1.60;;;;;;;7.61;72.80;98337.44;5063580;28;20072;-71
2022/04/08 00:13:34;;;;;;;3.90;2.05;;;;;;;7.66;72.60;98339.72;5065811;28;20049;-71
2022/04/08 00:16:00;;;;;;;7.20;1.85;;;;;;;7.81;72.32;98348.94;5068299;28;20439;-71
2022/04/08 00:18:28;;;;;;;3.88;1.55;;;;;;;7.87;72.31;98358.09;5068021;28;20097;-71
2022/04/08 00:20:54;;;;;;;4.65;1.50;;;;;;;8.11;70.93;98366.59;5067788;28;20032;-71
2022/04/08 00:23:21;;;;;;;2.45;1.20;;;;;;;7.79;71.49;98369.97;5067417;28;20106;-71
2022/04/08 00:25:47;;;;;;;3.95;1.25;;;;;;;7.79;71.73;98375.19;5068412;28;20524;-71
2022/04/08 00:28:15;;;;;;;6.97;1.60;;;;;;;7.76;72.14;98379.81;5068454;28;20044;-71
2022/04/08 00:30:41;;;;;;;3.42;1.30;;;;;;;7.71;72.19;98394.97;5085263;28;20497;-71
2022/04/08 00:33:09;;;;;;;5.57;1.23;;;;;;;7.66;72.21;98384.88;5074468;28;20060;-71
2022/04/08 00:35:36;;;;;;;3.03;1.23;;;;;;;7.88;71.91;98399.69;5067315;28;20098;-71
2022/04/08 00:38:02;;;;;;;3.05;1.30;;;;;;;7.98;71.88;98405.84;5067949;28;20052;-71
2022/04/08 00:40:29;;;;;;;2.80;1.05;;;;;;;7.71;72.52;98424.50;5067244;28;20050;-71
2022/04/08 00:42:55;;;;;;;2.13;1.02;;;;;;;7.42;73.54;98423.28;5066067;28;20407;-71
2022/04/08 00:45:23;;;;;;;3.25;1.70;;;;;;;7.33;74.33;98421.34;5060412;28;20098;-71
2022/04/08 00:47:49;;;;;;;8.48;1.77;;;;;;;7.29;76.63;98440.75;5058242;28;20068;-71
2022/04/08 00:50:19;;;;;;;4.55;1.98;;;;;;;7.26;76.75;98444.44;5058523;28;20509;-72
2022/04/08 00:52:46;;;;;;;2.92;1.30;;;;;;;7.32;76.55;98450.97;5064731;28;20110;-72
2022/04/08 00:55:12;;;;;;;3.63;1.42;;;;;;;7.45;76.88;98463.91;5064638;28;20052;-72
2022/04/08 00:57:40;;;;;;;8.05;1.95;;;;;;;7.02;79.26;98461.88;5064982;28;20074;-72
2022/04/08 01:00:09;;;;;;;5.35;2.75;;;;;;;6.84;81.03;98469.25;5065015;28;20052;-72
2022/04/08 01:02:37;;;;;;;7.18;2.22;;;;;;;6.62;81.88;98484.75;5065071;28;20078;-72
2022/04/08 01:05:04;;;;;;;4.38;2.67;;;;;;;6.57;82.46;98483.44;5065351;28;20094;-72
2022/04/08 01:07:32;;;;;;;3.53;2.10;;;;;;;6.68;81.98;98492.16;5061630;28;20048;-72
2022/04/08 01:09:58;;;;;;;4.50;2.25;;;;;;;6.68;82.40;98488.72;5061233;28;20060;-72
2022/04/08 01:12:25;;;;;;;4.40;2.78;;;;;;;6.75;81.51;98489.94;5065653;28;20045;-72
2022/04/08 01:14:56;;;;;;;3.78;2.30;;;;;;;6.75;81.94;98500.34;5065912;28;20071;-72
2022/04/08 01:17:23;;;;;;;5.43;2.00;;;;;;;6.90;81.20;98514.06;5064642;28;20068;-72
2022/04/08 01:19:50;;;;;;;5.18;2.60;;;;;;;6.84;81.98;98516.16;5064301;28;20496;-72
2022/04/08 01:22:18;;;;;;;4.07;2.33;;;;;;;7.05;81.47;98516.38;5063926;28;20048;-72
2022/04/08 01:24:48;;;;;;;5.90;2.40;;;;;;;7.00;81.75;98522.84;5060334;28;20041;-72
2022/04/08 01:27:17;;;;;;;4.25;2.60;;;;;;;6.83;82.37;98530.13;5062959;28;20090;-73
2022/04/08 01:29:44;;;;;;;2.83;1.95;;;;;;;6.95;82.15;98535.41;5066054;28;20513;-73
2022/04/08 01:32:10;;;;;;;6.53;3.08;;;;;;;7.11;82.13;98530.72;5066629;28;20546;-73
2022/04/08 01:34:36;;;;;;;5.30;2.50;;;;;;;6.90;82.19;98540.94;5067845;28;20040;-72
2022/04/08 01:37:03;;;;;;;4.07;2.60;;;;;;;6.68;83.37;98541.63;5066679;28;20048;-72
2022/04/08 01:39:29;;;;;;;6.32;2.63;;;;;;;6.72;82.79;98542.25;5066179;28;20049;-72
2022/04/08 01:41:55;;;;;;;5.07;2.78;;;;;;;6.77;82.54;98551.38;5067680;28;20048;-72
2022/04/08 01:44:23;;;;;;;6.22;2.78;;;;;;;6.98;81.95;98561.22;5056563;28;20048;-72
2022/04/08 01:46:49;;;;;;;3.03;1.67;;;;;;;7.07;80.34;98561.41;5061041;28;20044;-72
2022/04/08 01:49:16;;;;;;;4.50;2.75;;;;;;;7.14;80.30;98564.38;5070992;28;20101;-72
2022/04/08 01:51:42;;;;;;;4.03;2.08;;;;;;;7.30;79.25;98559.75;5067604;28;20056;-72
2022/04/08 01:54:08;;;;;;;3.33;1.75;;;;;;;7.08;79.29;98559.63;5071173;28;20107;-72
2022/04/08 01:56:35;;;;;;;4.07;1.98;;;;;;;6.76;80.68;98570.53;5063075;28;20459;-72
2022/04/08 01:59:01;;;;;;;3.03;1.70;;;;;;;6.93;80.15;98578.97;5051120;28;20048;-72
2022/04/08 02:01:29;;;;;;;3.50;1.30;;;;;;;6.99;79.54;98576.75;5067178;28;20049;-71
2022/04/08 02:03:55;;;;;;;5.43;1.35;;;;;;;6.78;79.64;98579.09;5071299;28;20113;-71
2022/04/08 02:06:21;;;;;;;4.03;1.60;;;;;;;6.80;79.16;98584.19;5068585;28;20633;-71
2022/04/08 02:08:49;;;;;;;3.28;1.20;;;;;;;6.80;78.71;98582.41;5067446;28;20508;-71
2022/04/08 02:11:16;;;;;;;2.33;1.10;;;;;;;6.62;78.84;98595.88;5070941;28;20048;-71
2022/04/08 02:13:43;;;;;;;2.80;0.82;;;;;;;6.51;78.50;98588.00;5071090;28;20048;-71
2022/04/08 02:16:09;;;;;;;2.03;0.80;;;;;;;6.57;78.20;98584.97;5069654;28;20049;-71
2022/04/08 02:18:37;;;;;;;3.63;1.20;;;;;;;6.57;78.18;98595.41;5070228;28;20041;-71
2022/04/08 02:21:04;;;;;;;2.58;1.15;;;;;;;6.85;77.14;98601.16;5068935;28;20084;-71
2022/04/08 02:23:30;;;;;;;4.50;1.40;;;;;;;6.92;76.87;98621.56;5068506;28;20048;-71
2022/04/08 02:25:56;;;;;;;1.75;1.02;;;;;;;6.73;78.02;98628.06;5069617;28;20045;-71
2022/04/08 02:28:23;;;;;;;3.47;1.20;;;;;;;6.60;78.96;98639.44;5069786;28;20101;-71
2022/04/08 02:30:52;;;;;;;4.32;1.40;;;;;;;6.60;79.80;98629.03;5070659;28;20098;-72
2022/04/08 02:33:19;;;;;;;2.33;1.40;;;;;;;6.81;79.18;98640.56;5070455;28;20045;-72
2022/04/08 02:35:47;;;;;;;2.40;1.20;;;;;;;6.84;79.00;98649.00;5067098;28;20071;-71
2022/04/08 02:38:14;;;;;;;2.00;1.05;;;;;;;7.11;78.11;98643.63;5070036;28;20045;-72
2022/04/08 02:40:40;;;;;;;4.15;1.85;;;;;;;6.64;79.83;98657.38;5069737;28;20044;-72
2022/04/08 02:43:06;;;;;;;5.78;1.90;;;;;;;6.62;80.22;98674.84;5070427;28;20048;-72
2022/04/08 02:45:33;;;;;;;4.32;1.10;;;;;;;6.75;79.31;98669.66;5070006;28;20496;-72
2022/04/08 02:47:59;;;;;;;4.70;1.65;;;;;;;6.82;79.24;98676.09;5070250;28;20609;-71
2022/04/08 02:50:25;;;;;;;2.72;1.60;;;;;;;6.63;79.94;98679.13;5069563;28;20102;-71
2022/04/08 02:52:53;;;;;;;3.22;1.63;;;;;;;6.84;79.44;98669.84;5068856;28;20066;-71
2022/04/08 02:55:19;;;;;;;2.20;0.95;;;;;;;6.91;78.80;98674.63;5069614;28;20045;-71
2022/04/08 02:57:48;;;;;;;3.30;1.17;;;;;;;6.85;78.78;98674.13;5068614;28;20059;-71
2022/04/08 03:00:16;;;;;;;3.30;1.30;;;;;;;7.02;78.18;98693.78;5069443;28;20051;-71
2022/04/08 03:02:42;;;;;;;3.22;1.40;;;;;;;7.16;77.89;98687.63;5069692;28;20098;-71
2022/04/08 03:05:09;;;;;;;3.33;1.33;;;;;;;7.10;78.33;98703.66;5069480;28;20101;-71
2022/04/08 03:07:36;;;;;;;3.70;1.40;;;;;;;6.94;79.24;98700.47;5069175;28;20044;-71
2022/04/08 03:10:06;;;;;;;5.05;1.42;;;;;;;6.90;78.93;98727.66;5068856;28;20048;-71
2022/04/08 03:12:32;;;;;;;3.90;1.33;;;;;;;7.18;78.53;98727.41;5069761;28;20048;-71
2022/04/08 03:14:59;;;;;;;6.00;1.73;;;;;;;7.52;76.97;98721.50;5069643;28;20052;-71
2022/04/08 03:17:26;;;;;;;1.90;1.10;;;;;;;7.19;77.60;98719.50;5068984;28;20040;-71
2022/04/08 03:19:52;;;;;;;5.32;1.25;;;;;;;7.28;76.97;98733.66;5069683;28;20048;-71
2022/04/08 03:22:20;;;;;;;2.70;1.20;;;;;;;7.28;75.54;98741.47;5065702;28;20041;-71
2022/04/08 03:24:46;;;;;;;2.60;0.98;;;;;;;7.18;76.06;98743.06;5067554;28;20068;-71
2022/04/08 03:27:14;;;;;;;1.95;0.80;;;;;;;6.97;76.71;98754.97;5068884;28;20075;-71
2022/04/08 03:29:40;;;;;;;2.70;0.60;;;;;;;7.13;75.60;98753.78;5069005;28;20043;-71
2022/04/08 03:32:08;;;;;;;6.13;0.80;;;;;;;7.01;75.72;98762.47;5069293;28;20102;-71
2022/04/08 03:34:34;;;;;;;3.45;1.00;;;;;;;7.03;76.05;98778.00;5069390;28;20040;-71
2022/04/08 03:37:01;;;;;;;1.48;0.80;;;;;;;6.99;76.05;98782.56;5068485;28;20049;-71
2022/04/08 03:39:28;;;;;;;2.22;0.82;;;;;;;7.11;76.17;98773.09;5068510;28;20074;-71
2022/04/08 03:41:54;;;;;;;3.10;0.98;;;;;;;7.13;75.31;98779.06;5069421;28;20048;-71
2022/04/08 03:44:22;;;;;;;4.57;1.15;;;;;;;7.06;76.05;98788.22;5069853;28;20060;-71
2022/04/08 03:46:49;;;;;;;3.13;1.02;;;;;;;7.45;74.91;98801.13;5060733;28;20447;-71
2022/04/08 03:49:15;;;;;;;2.03;0.98;;;;;;;7.61;73.79;98793.88;5068693;28;20044;-71
2022/04/08 03:51:41;;;;;;;4.78;1.13;;;;;;;7.62;73.72;98811.19;5067745;28;20066;-71
2022/04/08 03:54:08;;;;;;;3.08;0.95;;;;;;;7.57;73.76;98815.09;5068962;28;20048;-71
2022/04/08 03:56:34;;;;;;;1.90;0.80;;;;;;;7.08;75.07;98802.81;5068569;28;20045;-71
2022/04/08 03:59:00;;;;;;;2.55;1.10;;;;;;;7.01;75.73;98822.41;5068319;28;20052;-71
2022/04/08 04:01:28;;;;;;;6.03;1.13;;;;;;;6.92;75.85;98830.00;5069014;28;20581;-71
2022/04/08 04:03:54;;;;;;;3.85;1.20;;;;;;;7.22;74.17;98835.75;5068879;28;20420;-71
2022/04/08 04:06:21;;;;;;;4.32;1.25;;;;;;;7.08;74.56;98846.28;5068670;28;20508;-71
2022/04/08 04:08:47;;;;;;;3.75;1.40;;;;;;;7.24;74.13;98846.91;5067982;28;20052;-71
2022/04/08 04:11:15;;;;;;;2.75;1.38;;;;;;;7.17;74.08;98848.25;5068488;28;20116;-71
2022/04/08 04:13:41;;;;;;;3.58;1.30;;;;;;;7.09;74.52;98853.16;5068352;28;20044;-71
2022/04/08 04:16:07;;;;;;;9.98;1.85;;;;;;;7.15;74.85;98864.00;5068120;28;20086;-71
2022/04/08 04:18:35;;;;;;;2.40;1.30;;;;;;;7.20;74.63;98861.94;5067897;28;20048;-71
2022/04/08 04:21:02;;;;;;;5.97;1.60;;;;;;;7.16;75.01;98870.91;5066936;28;20072;-71
2022/04/08 04:23:28;;;;;;;3.70;1.95;;;;;;;7.14;75.44;98874.53;5067445;28;20048;-71
2022/04/08 04:25:55;;;;;;;6.38;1.70;;;;;;;7.10;75.58;98886.94;5068018;28;20103;-71
2022/04/08 04:28:21;;;;;;;3.83;1.60;;;;;;;6.86;76.24;98896.38;5068932;28;20488;-71
2022/04/08 04:30:47;;;;;;;2.15;1.30;;;;;;;6.91;76.42;98901.28;5067858;28;20071;-72
2022/04/08 04:33:14;;;;;;;3.85;1.50;;;;;;;7.11;76.29;98903.41;5068285;28;20078;-71
2022/04/08 04:35:41;;;;;;;2.75;1.30;;;;;;;6.97;76.64;98906.09;5067868;28;20044;-71
2022/04/08 04:38:08;;;;;;;3.90;1.52;;;;;;;7.05;76.65;98906.44;5067568;28;20094;-72
2022/04/08 04:40:34;;;;;;;6.07;1.52;;;;;;;7.03;75.97;98918.69;5067373;28;20036;-72
2022/04/08 04:43:01;;;;;;;3.35;1.25;;;;;;;7.11;75.77;98919.03;5068209;28;20044;-72
2022/04/08 04:45:27;;;;;;;3.00;1.50;;;;;;;7.04;76.05;98930.81;5068020;28;20094;-72
2022/04/08 04:47:53;;;;;;;7.15;1.80;;;;;;;7.07;76.24;98936.66;5067157;28;20048;-72
2022/04/08 04:50:20;;;;;;;7.88;1.17;;;;;;;7.12;76.06;98923.31;5066060;28;20102;-72
2022/04/08 04:52:48;;;;;;;7.32;2.05;;;;;;;7.07;76.03;98947.06;5065133;28;20047;-73
2022/04/08 04:55:14;;;;;;;4.28;1.67;;;;;;;7.56;74.56;98960.28;5074283;28;20126;-73
2022/04/08 04:57:41;;;;;;;4.85;1.70;;;;;;;7.40;75.23;98962.25;5068108;28;20492;-73
2022/04/08 05:00:09;;;;;;;3.42;1.42;;;;;;;7.05;75.66;98966.38;5071816;28;20098;-72
2022/04/08 05:02:36;;;;;;;7.93;1.63;;;;;;;7.11;75.26;98965.94;5067446;28;20049;-74
2022/04/08 05:05:02;;;;;;;4.75;1.70;;;;;;;7.04;76.31;98981.16;5068184;28;20106;-74
2022/04/08 05:07:29;;;;;;;4.85;1.90;;;;;;;7.29;74.93;98990.81;5065156;28;20040;-74
2022/04/08 05:09:56;;;;;;;4.32;1.70;;;;;;;7.51;74.17;98998.88;5065780;28;20052;-74
2022/04/08 05:12:23;;;;;;;3.28;1.63;;;;;;;7.37;74.96;98998.97;5067674;28;20118;-74
2022/04/08 05:14:49;;;;;;;4.05;1.50;;;;;;;7.26;75.23;99010.09;5067495;28;20481;-74
2022/04/08 05:17:15;;;;;;;4.18;1.75;;;;;;;7.33;75.48;99007.91;5065355;28;20173;-75
2022/04/08 05:19:42;;;;;;;3.80;1.52;;;;;;;7.06;76.04;99012.34;5066560;28;20111;-74
2022/04/08 05:22:08;;;;;;;5.97;1.80;;;;;;;7.31;75.35;99022.84;5066846;28;20463;-73
2022/04/08 05:24:34;;;;;;;5.68;1.98;;;;;;;7.26;75.40;99022.28;5067994;28;20048;-73
2022/04/08 05:27:02;;;;;;;2.83;1.48;;;;;;;7.46;74.70;99023.59;5067424;28;20041;-74
2022/04/08 05:29:28;;;;;;;8.50;1.75;;;;;;;7.24;75.38;99024.19;5065731;28;20044;-74
2022/04/08 05:31:56;;;;;;;3.55;1.85;;;;;;;7.20;76.19;99030.53;5066809;28;20775;-73
2022/04/08 05:34:22;;;;;;;6.18;1.73;;;;;;;6.99;76.28;99029.28;5067733;28;20049;-73
2022/04/08 05:36:49;;;;;;;3.72;1.67;;;;;;;6.82;76.51;99030.38;5067579;28;20060;-73
2022/04/08 05:39:15;;;;;;;5.07;1.80;;;;;;;6.84;77.12;99024.13;5066899;28;20130;-73
2022/04/08 05:41:41;;;;;;;5.03;1.83;;;;;;;6.99;76.32;99037.09;5067569;28;20102;-74
2022/04/08 05:44:09;;;;;;;3.60;1.42;;;;;;;7.19;74.98;99040.13;5067405;28;20602;-73
2022/04/08 05:46:36;;;;;;;8.05;1.88;;;;;;;6.92;75.97;99038.44;5066412;28;20044;-72
2022/04/08 05:49:03;;;;;;;5.38;1.52;;;;;;;6.92;76.44;99048.84;5066787;28;20060;-73
2022/04/08 05:51:29;;;;;;;3.80;1.55;;;;;;;6.70;76.46;99055.41;5067841;28;20471;-73
2022/04/08 05:53:55;;;;;;;4.95;1.75;;;;;;;6.66;76.83;99048.72;5067240;28;20044;-72
2022/04/08 05:56:22;;;;;;;2.15;1.25;;;;;;;6.51;77.08;99048.84;5067627;28;20048;-73
2022/04/08 05:58:48;;;;;;;3.70;1.77;;;;;;;6.24;77.13;99057.44;5066599;28;20044;-73
2022/04/08 06:01:16;;;;;;;2.72;1.55;;;;;;;6.35;77.04;99060.22;5067151;28;20121;-71
2022/04/08 06:03:42;;;;;;;4.25;1.88;;;;;;;6.39;76.81;99078.25;5066734;28;20044;-71
2022/04/08 06:06:08;;;;;;;2.92;1.77;;;;;;;6.51;76.97;99086.13;5064888;28;20044;-73
2022/04/08 06:08:35;;;;;;;4.00;1.45;;;;;;;6.62;76.50;99093.28;5065696;28;20253;-71
2022/04/08 06:11:01;;;;;;;3.50;1.88;;;;;;;7.18;74.95;99102.75;5065959;28;20049;-72
2022/04/08 06:13:28;;;;;;;6.47;2.13;;;;;;;7.14;75.04;99115.16;5065779;28;20056;-72
2022/04/08 06:15:55;;;;;;;4.00;1.98;;;;;;;6.68;77.41;99125.00;5065181;28;20497;-72
2022/04/08 06:18:23;;;;;;;6.93;2.13;;;;;;;6.75;77.44;99148.91;5067145;28;20063;-73
2022/04/08 06:20:49;;;;;;;1.75;1.00;;;;;;;6.53;77.58;99159.78;5066109;28;20043;-74
2022/04/08 06:23:15;;;;;;;3.55;1.40;;;;;;;6.18;80.21;99187.06;5065011;28;20052;-75
2022/04/08 06:25:42;;;;;;;2.13;0.93;;;;;;;5.87;79.26;99178.41;5046986;28;20098;-74
2022/04/08 06:28:08;;;;;;;7.22;1.25;;;;;;;5.60;79.31;99182.56;5046984;28;20053;-74
2022/04/08 06:30:37;;;;;;;2.08;0.82;;;;;;;5.88;78.80;99182.69;5049504;28;20049;-74
2022/04/08 06:33:05;;;;;;;2.88;1.02;;;;;;;5.71;79.30;99198.41;5066613;28;20102;-74
2022/04/08 06:35:33;;;;;;;1.88;0.82;;;;;;;5.83;78.90;99199.47;5070005;28;20053;-74
2022/04/08 06:38:00;;;;;;;3.22;0.80;;;;;;;6.07;78.21;99202.47;5070425;28;20554;-74
2022/04/08 06:40:27;;;;;;;4.35;0.90;;;;;;;7.24;77.87;99211.88;5067418;28;20040;-74
2022/04/08 06:42:55;;;;;;;2.70;0.77;;;;;;;8.76;72.32;99195.72;5051094;28;20041;-74
2022/04/08 06:45:22;;;;;;;3.47;0.88;;;;;;;9.49;68.06;99203.66;5069916;28;20047;-74
2022/04/08 06:47:49;;;;;;;4.53;0.73;;;;;;;9.43;65.13;99191.00;5069849;28;20090;-74
2022/04/08 06:50:16;;;;;;;1.70;0.77;;;;;;;9.60;66.62;99200.25;5069466;28;20484;-74
2022/04/08 06:52:44;;;;;;;2.00;0.82;;;;;;;10.16;67.62;99198.78;5069994;28;20254;-74
2022/04/08 06:55:11;;;;;;;3.13;0.73;;;;;;;9.96;65.94;99213.28;5067220;28;20070;-74
2022/04/08 06:57:37;;;;;;;2.72;0.90;;;;;;;9.81;61.75;99205.72;5067630;28;20500;-73
2022/04/08 07:00:06;;;;;;;2.13;0.80;;;;;;;10.36;60.72;99210.38;5062460;28;20052;-73
2022/04/08 07:02:32;;;;;;;1.90;0.80;;;;;;;10.78;58.58;99217.63;5068964;28;20052;-73
2022/04/08 07:04:58;;;;;;;4.60;1.52;;;;;;;10.75;58.21;99215.22;5070032;28;20044;-73
2022/04/08 07:07:28;;;;;;;3.75;1.00;;;;;;;10.77;57.83;99209.84;5069880;28;20044;-73
2022/04/08 07:09:57;;;;;;;2.15;0.77;;;;;;;10.24;57.04;99202.47;5068487;28;20075;-73
2022/04/08 07:12:23;;;;;;;3.30;0.80;;;;;;;10.15;54.74;99195.31;5069437;28;20040;-72
2022/04/08 07:14:49;;;;;;;2.88;0.82;;;;;;;10.68;54.80;99204.34;5069543;28;20049;-72
2022/04/08 07:17:16;;;;;;;3.58;0.90;;;;;;;10.67;54.23;99210.56;5069609;28;20110;-72
2022/04/08 07:19:42;;;;;;;6.35;0.90;;;;;;;10.50;55.72;99208.38;5068183;28;20132;-72
2022/04/08 07:22:09;;;;;;;3.60;1.27;;;;;;;10.66;54.80;99198.41;5069598;28;20053;-73
2022/04/08 07:24:35;;;;;;;4.05;0.90;;;;;;;10.51;55.14;99210.06;5069862;28;20098;-73
2022/04/08 07:27:03;;;;;;;3.15;0.93;;;;;;;10.57;54.26;99204.34;5068987;28;20044;-73
2022/04/08 07:29:30;;;;;;;5.57;1.23;;;;;;;10.53;53.64;99202.09;5069252;28;20040;-73
2022/04/08 07:31:56;;;;;;;2.50;0.93;;;;;;;11.26;53.09;99206.88;5068999;28;20106;-73
2022/04/08 07:34:23;;;;;;;7.55;1.63;;;;;;;11.31;54.05;99202.94;5060470;28;20047;-73
2022/04/08 07:36:49;;;;;;;7.63;1.10;;;;;;;10.82;52.80;99207.72;5063256;28;20040;-73
2022/04/08 07:39:15;;;;;;;4.45;1.00;;;;;;;10.67;53.86;99223.69;5068687;28;20097;-72
2022/04/08 07:41:42;;;;;;;5.45;1.13;;;;;;;11.03;53.53;99213.94;5069339;28;20090;-72
2022/04/08 07:44:09;;;;;;;4.75;1.23;;;;;;;10.48;54.48;99210.28;5069167;28;20098;-72
2022/04/08 07:46:36;;;;;;;5.13;1.33;;;;;;;10.51;55.81;99215.28;5068310;28;20048;-73
2022/04/08 07:49:02;;;;;;;3.50;0.98;;;;;;;10.71;54.52;99221.66;5068508;28;20231;-72
2022/04/08 07:51:28;;;;;;;7.50;1.15;;;;;;;10.80;54.78;99226.19;5069198;28;20048;-72
2022/04/08 07:53:55;;;;;;;11.38;1.30;;;;;;;10.68;54.91;99219.25;5069603;28;20048;-72
2022/04/08 07:56:21;;;;;;;5.20;1.08;;;;;;;9.60;54.67;99216.81;5069101;28;20045;-72
2022/04/08 07:58:48;;;;;;;4.07;1.20;;;;;;;9.88;56.01;99225.25;5049717;28;20045;-72
2022/04/08 08:01:15;;;;;;;5.43;1.48;;;;;;;10.77;54.14;99228.19;5049075;28;20045;-72
2022/04/08 08:03:45;;;;;;;5.65;1.27;;;;;;;11.16;54.11;99225.97;5057790;28;20041;-72
2022/04/08 08:06:11;;;;;;;5.53;1.45;;;;;;;11.33;51.85;99234.31;5068758;28;20060;-72
2022/04/08 08:08:38;;;;;;;4.85;1.05;;;;;;;11.23;51.99;99235.03;5068274;28;20044;-72
2022/04/08 08:11:11;;;;;;;3.65;0.93;;;;;;;10.70;52.27;99228.69;5064258;28;20041;-72
2022/04/08 08:13:37;;;;;;;4.57;1.10;;;;;;;10.73;55.24;99241.56;5069058;28;20040;-72
2022/04/08 08:16:04;;;;;;;4.47;1.02;;;;;;;10.85;53.41;99244.19;5068412;28;20056;-72
2022/04/08 08:18:32;;;;;;;3.47;1.15;;;;;;;10.87;52.81;99216.06;5067287;28;20086;-72
2022/04/08 08:20:58;;;;;;;8.10;1.40;;;;;;;10.97;52.29;99248.50;5067876;28;20493;-73
2022/04/08 08:23:25;;;;;;;6.50;1.20;;;;;;;10.65;52.58;99243.06;5068959;28;20117;-72
2022/04/08 08:25:51;;;;;;;12.82;1.25;;;;;;;9.85;54.55;99249.06;5068151;28;20488;-71
2022/04/08 08:28:18;;;;;;;7.28;1.38;;;;;;;9.73;55.87;99263.84;5054623;28;20049;-71
2022/04/08 08:30:45;;;;;;;6.38;1.45;;;;;;;10.34;54.78;99256.81;5047731;28;20071;-71
2022/04/08 08:33:12;;;;;;;4.78;1.27;;;;;;;10.70;54.51;99251.44;5048447;28;20053;-71
2022/04/08 08:35:40;;;;;;;1.80;0.82;;;;;;;11.20;52.44;99261.50;5067613;28;20096;-72
2022/04/08 08:38:07;;;;;;;12.45;3.47;;;;;;;11.57;52.26;99262.09;5067690;28;20045;-72
2022/04/08 08:40:34;;;;;;;4.80;1.42;;;;;;;11.67;51.68;99259.56;5067430;28;20040;-73
2022/04/08 08:43:02;;;;;;;5.72;1.17;;;;;;;12.34;49.63;99259.41;5065016;28;20045;-72
2022/04/08 08:45:32;;;;;;;5.28;0.90;;;;;;;11.32;51.29;99272.00;5067720;28;20052;-72
2022/04/08 08:48:01;;;;;;;6.65;1.08;;;;;;;10.29;52.97;99267.63;5067162;28;20123;-72
2022/04/08 08:50:29;;;;;;;4.03;1.20;;;;;;;10.94;53.39;99264.47;5067183;28;20484;-74
2022/04/08 08:52:58;;;;;;;7.07;1.17;;;;;;;11.28;51.32;99258.28;5068282;28;20070;-73
2022/04/08 08:55:24;;;;;;;6.28;1.42;;;;;;;11.45;50.37;99263.06;5066534;28;20049;-73
2022/04/08 08:57:52;;;;;;;6.95;1.30;;;;;;;11.20;50.73;99265.91;5063558;28;20045;-73
2022/04/08 09:00:19;;;;;;;6.57;1.38;;;;;;;11.67;50.83;99264.84;5067353;28;20048;-75
2022/04/08 09:02:48;;;;;;;2.30;0.77;;;;;;;11.27;49.08;99272.34;5067321;28;20114;-74
2022/04/08 09:05:16;;;;;;;9.68;1.38;;;;;;;10.33;52.94;99273.47;5067676;28;20040;-74
2022/04/08 09:07:43;;;;;;;3.13;1.10;;;;;;;11.33;54.32;99281.56;5067313;28;20044;-75
2022/04/08 09:10:11;;;;;;;6.63;1.83;;;;;;;11.74;50.63;99281.78;5065234;28;20044;-74
2022/04/08 09:12:37;;;;;;;4.45;1.63;;;;;;;11.22;50.93;99264.84;5067148;28;20481;-74
2022/04/08 09:15:04;;;;;;;8.10;1.55;;;;;;;10.58;52.58;99281.19;5066988;28;20052;-68
2022/04/08 09:17:31;;;;;;;7.30;1.65;;;;;;;10.27;51.79;99277.41;5064586;28;20040;-67
2022/04/08 09:19:59;;;;;;;9.45;1.55;;;;;;;10.91;51.24;99273.41;5063481;28;20750;-67
2022/04/08 09:22:28;;;;;;;3.95;1.58;;;;;;;10.50;51.59;99280.91;5065533;28;20040;-67
2022/04/08 09:24:54;;;;;;;4.50;1.33;;;;;;;10.50;52.86;99275.66;5067661;28;20493;-67
2022/04/08 09:27:32;;;;;;;13.07;1.63;;;;;;;11.24;49.69;99269.97;5059308;28;20060;-67
2022/04/08 09:29:59;;;;;;;5.68;1.30;;;;;;;11.08;49.90;99277.38;5047740;28;20422;-67
2022/04/08 09:32:27;;;;;;;5.47;1.65;;;;;;;10.36;51.18;99276.69;5069918;28;20052;-67
2022/04/08 09:34:53;;;;;;;12.32;1.92;;;;;;;9.88;52.39;99272.38;5067321;28;20044;-67
2022/04/08 09:37:19;;;;;;;7.20;1.55;;;;;;;10.12;52.18;99273.25;5067459;28;20106;-67
2022/04/08 09:39:56;;;;;;;3.45;1.30;;;;;;;10.57;51.28;99288.22;5065684;28;20504;-67
2022/04/08 09:42:24;;;;;;;6.28;1.55;;;;;;;11.13;49.88;99268.19;5066967;28;20036;-67
2022/04/08 09:44:52;;;;;;;5.00;1.27;;;;;;;11.25;48.26;99271.66;5067162;28;20169;-67
2022/04/08 09:47:18;;;;;;;8.95;1.38;;;;;;;10.56;50.51;99270.84;5064478;28;20049;-68
2022/04/08 09:49:44;;;;;;;6.35;1.60;;;;;;;10.63;51.54;99272.03;5066213;28;20044;-67
2022/04/08 09:52:12;;;;;;;6.28;1.52;;;;;;;10.27;51.60;99268.69;5067063;28;20093;-67
2022/04/08 09:54:43;;;;;;;4.72;1.05;;;;;;;10.04;52.45;99275.56;5067125;28;20060;-67
2022/04/08 09:57:16;;;;;;;5.85;1.40;;;;;;;9.86;53.94;99292.63;5066983;28;20040;-67
2022/04/08 09:59:44;;;;;;;;;;;;;;;9.41;53.97;99283.63;5066727;28;20052;-67
2022/04/08 10:02:13;;;;;;;2.58;1.63;;;;;;;9.39;54.15;99288.94;5067064;28;19951;-68
2022/04/08 10:04:39;;;;;;;2.88;1.50;;;;;;;10.21;54.38;99269.97;5063480;28;20497;-68
2022/04/08 10:07:06;;;;;;;3.47;1.30;;;;;;;10.62;50.56;99270.38;5067479;28;20048;-71
2022/04/08 10:09:39;;;;;;;6.05;1.42;;;;;;;10.99;49.95;99257.91;5070379;28;20516;-68
2022/04/08 10:12:14;;;;;;;6.32;1.48;;;;;;;10.50;49.85;99260.78;5070859;28;20048;-68
2022/04/08 10:14:50;;;;;;;7.00;1.45;;;;;;;10.91;49.37;99259.44;5070484;28;20098;-68
2022/04/08 10:17:17;;;;;;;8.65;1.70;;;;;;;11.07;47.99;99242.44;5070609;28;20048;-68
2022/04/08 10:19:43;;;;;;;4.05;1.40;;;;;;;11.32;47.11;99259.72;5069669;28;20500;-68
2022/04/08 10:22:16;;;;;;;2.42;1.00;;;;;;;11.55;45.86;99245.63;5069619;28;20045;-68
2022/04/08 10:24:52;;;;;;;2.65;1.05;;;;;;;11.13;45.14;99243.72;5070193;28;20051;-68
2022/04/08 10:27:29;;;;;;;3.05;1.40;;;;;;;10.82;45.70;99236.56;5070760;28;20048;-67
2022/04/08 10:29:56;;;;;;;2.85;1.10;;;;;;;10.81;45.34;99225.25;5068751;28;20618;-67
2022/04/08 10:32:23;;;;;;;5.00;1.40;;;;;;;10.55;47.12;99242.94;5070289;28;20554;-68
2022/04/08 10:34:50;;;;;;;4.63;1.48;;;;;;;10.66;46.28;99235.09;5070776;28;20044;-68
2022/04/08 10:37:20;;;;;;;3.85;1.35;;;;;;;10.89;46.10;99229.91;5065872;28;20055;-68
2022/04/08 10:39:56;;;;;;;3.63;1.25;;;;;;;11.07;46.50;99233.72;5069290;28;20044;-68
2022/04/08 10:42:24;;;;;;;8.00;1.50;;;;;;;11.25;45.86;99227.03;5069815;28;20695;-68
2022/04/08 10:44:50;;;;;;;8.32;1.30;;;;;;;11.56;46.12;99222.84;5070463;28;20045;-68
2022/04/08 10:47:20;;;;;;;4.93;1.30;;;;;;;12.08;45.71;99216.88;5069740;28;20123;-67
2022/04/08 10:49:50;;;;;;;4.95;1.50;;;;;;;11.78;45.02;99216.75;5069309;28;20041;-67
2022/04/08 10:52:18;;;;;;;5.38;1.27;;;;;;;11.39;45.16;99221.53;5067230;28;20049;-68
2022/04/08 10:54:45;;;;;;;6.57;1.25;;;;;;;10.71;45.39;99219.88;5069181;28;20037;-68
2022/04/08 10:57:11;;;;;;;6.47;1.50;;;;;;;10.68;45.61;99220.09;5069831;28;20072;-68
2022/04/08 10:59:38;;;;;;;5.00;1.20;;;;;;;10.69;46.17;99216.53;5069165;28;20071;-67
2022/04/08 11:02:10;;;;;;;3.63;1.00;;;;;;;10.50;46.76;99211.00;5067795;28;20454;-67
2022/04/08 11:04:38;;;;;;;;;;;;;;;10.73;47.57;99210.09;5068426;28;20048;-68
2022/04/08 11:07:06;;;;;;;5.18;1.40;;;;;;;11.20;48.32;99198.53;5069610;28;19989;-68
2022/04/08 11:09:34;;;;;;;4.35;1.40;;;;;;;11.88;44.32;99194.00;5068892;28;20052;-67
2022/04/08 11:12:01;;;;;;;6.22;1.42;;;;;;;11.51;44.60;99191.69;5069274;28;20040;-67
2022/04/08 11:14:29;;;;;;;6.20;1.60;;;;;;;11.62;45.52;99188.22;5069919;28;20483;-66
2022/04/08 11:16:55;;;;;;;4.47;1.73;;;;;;;11.20;44.45;99187.19;5068003;28;20039;-67
2022/04/08 11:19:23;;;;;;;2.72;1.10;;;;;;;10.84;45.33;99179.59;5066075;28;20044;-67
2022/04/08 11:21:51;;;;;;;8.50;1.77;;;;;;;11.00;46.01;99177.47;5064480;28;20047;-67
2022/04/08 11:24:19;;;;;;;4.75;1.48;;;;;;;11.16;45.24;99183.16;5068447;28;21394;-67
2022/04/08 11:26:47;;;;;;;4.20;1.50;;;;;;;11.68;45.06;99178.03;5064066;28;20135;-67
2022/04/08 11:29:15;;;;;;;6.75;1.65;;;;;;;11.75;44.32;99182.84;5049199;28;20135;-67
2022/04/08 11:31:43;;;;;;;5.70;2.25;;;;;;;12.12;44.87;99187.56;5055008;28;20040;-67
2022/04/08 11:34:09;;;;;;;7.28;1.90;;;;;;;11.97;43.50;99180.94;5072836;28;20052;-67
2022/04/08 11:36:36;;;;;;;5.22;1.50;;;;;;;11.34;44.95;99173.84;5068166;28;20094;-67
2022/04/08 11:39:05;;;;;;;5.97;1.70;;;;;;;11.08;43.71;99178.53;5068186;28;20121;-67